createdAt,value
2018-01-07T00:00:23.044Z,5.97
2018-01-07T00:02:58.258Z,2.07
2018-01-07T00:05:33.940Z,2.63
2018-01-07T00:08:09.359Z,2.13
2018-01-07T00:10:45.630Z,3.03
2018-01-07T00:13:21.479Z,1.93
2018-01-07T00:15:56.427Z,1.90
2018-01-07T00:18:32.076Z,3.90
2018-01-07T00:21:07.831Z,2.53
2018-01-07T00:23:42.906Z,2.30
2018-01-07T00:26:18.104Z,3.67
2018-01-07T00:28:53.898Z,4.63
2018-01-07T00:31:29.768Z,3.77
2018-01-07T00:34:06.196Z,2.60
2018-01-07T00:36:42.874Z,3.30
2018-01-07T00:39:18.544Z,2.90
2018-01-07T00:41:54.518Z,4.20
2018-01-07T00:44:30.125Z,4.30
2018-01-07T00:47:06.082Z,1.83
2018-01-07T00:49:41.436Z,2.47
2018-01-07T00:52:17.434Z,2.50
2018-01-07T00:54:53.105Z,2.07
2018-01-07T00:57:28.990Z,2.30
2018-01-07T01:00:04.778Z,2.20
2018-01-07T01:02:40.594Z,3.37
2018-01-07T01:05:16.761Z,2.00
2018-01-07T01:07:52.611Z,2.40
2018-01-07T01:10:28.283Z,2.10
2018-01-07T01:13:04.040Z,2.70
2018-01-07T01:15:39.675Z,2.30
2018-01-07T01:18:15.343Z,2.40
2018-01-07T01:20:50.705Z,3.40
2018-01-07T01:23:26.433Z,1.43
2018-01-07T01:26:01.537Z,2.00
2018-01-07T01:28:37.151Z,2.00
2018-01-07T01:31:13.064Z,2.10
2018-01-07T01:33:48.635Z,2.30
2018-01-07T01:36:23.458Z,2.27
2018-01-07T01:38:59.091Z,3.23
2018-01-07T01:41:34.875Z,2.13
2018-01-07T01:44:10.257Z,2.40
2018-01-07T01:46:45.800Z,3.43
2018-01-07T01:49:20.880Z,1.83
2018-01-07T01:51:56.796Z,3.77
2018-01-07T01:54:32.497Z,1.87
2018-01-07T01:57:08.587Z,2.60
2018-01-07T01:59:44.463Z,1.87
2018-01-07T02:02:20.103Z,2.20
2018-01-07T02:04:55.367Z,2.07
2018-01-07T02:07:31.962Z,2.77
2018-01-07T02:10:08.043Z,2.70
2018-01-07T02:12:44.428Z,1.90
2018-01-07T02:15:20.064Z,3.23
2018-01-07T02:17:55.740Z,2.43
2018-01-07T02:20:31.460Z,3.43
2018-01-07T02:23:07.616Z,3.40
2018-01-07T02:25:43.208Z,3.90
2018-01-07T02:28:18.938Z,1.80
2018-01-07T02:30:54.372Z,2.40
2018-01-07T02:33:30.637Z,2.03
2018-01-07T02:36:06.190Z,2.23
2018-01-07T02:38:41.445Z,2.20
2018-01-07T02:41:17.411Z,2.37
2018-01-07T02:43:52.844Z,2.40
2018-01-07T02:46:28.120Z,2.40
2018-01-07T02:49:03.186Z,3.40
2018-01-07T02:51:39.644Z,1.80
2018-01-07T02:54:15.851Z,2.67
2018-01-07T02:56:51.498Z,2.00
2018-01-07T02:59:26.341Z,1.97
2018-01-07T03:02:01.892Z,2.33
2018-01-07T03:04:37.392Z,3.83
2018-01-07T03:07:12.244Z,3.30
2018-01-07T03:09:47.749Z,2.30
2018-01-07T03:12:23.187Z,2.57
2018-01-07T03:14:58.950Z,2.03
2018-01-07T03:17:33.820Z,2.33
2018-01-07T03:20:10.318Z,3.13
2018-01-07T03:22:46.271Z,2.80
2018-01-07T03:25:21.505Z,3.27
2018-01-07T03:27:57.076Z,2.27
2018-01-07T03:30:32.141Z,2.23
2018-01-07T03:33:07.820Z,2.30
2018-01-07T03:35:44.319Z,3.13
2018-01-07T03:38:19.868Z,2.90
2018-01-07T03:40:55.527Z,2.67
2018-01-07T03:43:31.831Z,2.27
2018-01-07T03:46:07.435Z,2.67
2018-01-07T03:48:43.745Z,4.43
2018-01-07T03:51:19.569Z,2.30
2018-01-07T03:53:56.877Z,2.47
2018-01-07T03:56:32.356Z,2.60
2018-01-07T03:59:07.449Z,2.60
2018-01-07T04:01:43.238Z,2.60
2018-01-07T04:04:18.428Z,2.63
2018-01-07T04:06:54.047Z,2.30
2018-01-07T04:09:30.761Z,2.80
2018-01-07T04:12:06.240Z,2.10
2018-01-07T04:14:41.672Z,2.70
2018-01-07T04:17:17.228Z,3.20
2018-01-07T04:19:54.286Z,2.73
2018-01-07T04:22:29.545Z,3.03
2018-01-07T04:25:05.488Z,2.47
2018-01-07T04:27:41.236Z,2.33
2018-01-07T04:30:16.173Z,2.57
2018-01-07T04:32:51.730Z,4.53
2018-01-07T04:35:26.962Z,2.03
2018-01-07T04:38:02.198Z,2.53
2018-01-07T04:40:37.871Z,2.13
2018-01-07T04:43:13.413Z,2.73
2018-01-07T04:45:48.644Z,2.50
2018-01-07T04:48:24.401Z,2.53
2018-01-07T04:50:59.857Z,2.03
2018-01-07T04:53:35.188Z,2.27
2018-01-07T04:56:10.656Z,2.73
2018-01-07T04:58:45.663Z,2.33
2018-01-07T05:01:21.182Z,2.60
2018-01-07T05:03:57.741Z,2.37
2018-01-07T05:06:33.247Z,2.40
2018-01-07T05:09:08.330Z,3.33
2018-01-07T05:11:44.186Z,2.63
2018-01-07T05:14:19.581Z,3.87
2018-01-07T05:16:55.943Z,2.83
2018-01-07T05:19:31.878Z,2.73
2018-01-07T05:22:07.600Z,3.00
2018-01-07T05:24:43.516Z,3.10
2018-01-07T05:27:18.656Z,3.00
2018-01-07T05:29:54.630Z,4.00
2018-01-07T05:32:30.629Z,2.93
2018-01-07T05:35:06.153Z,3.00
2018-01-07T05:37:41.801Z,2.63
2018-01-07T05:40:17.316Z,2.57
2018-01-07T05:42:52.986Z,2.60
2018-01-07T05:45:28.367Z,2.40
2018-01-07T05:48:03.774Z,2.53
2018-01-07T05:50:39.177Z,2.40
2018-01-07T05:53:15.615Z,3.50
2018-01-07T05:55:50.938Z,2.60
2018-01-07T05:58:26.412Z,2.93
2018-01-07T06:01:03.957Z,2.37
2018-01-07T06:03:39.316Z,2.53
2018-01-07T06:06:14.964Z,2.77
2018-01-07T06:08:50.033Z,2.43
2018-01-07T06:11:25.111Z,2.67
2018-01-07T06:14:01.761Z,2.80
2018-01-07T06:16:37.380Z,2.50
2018-01-07T06:19:13.105Z,2.43
2018-01-07T06:21:49.604Z,2.10
2018-01-07T06:24:24.769Z,3.23
2018-01-07T06:27:00.313Z,2.93
2018-01-07T06:29:35.818Z,2.20
2018-01-07T06:32:12.415Z,2.97
2018-01-07T06:34:48.448Z,2.03
2018-01-07T06:37:24.975Z,2.37
2018-01-07T06:40:00.383Z,2.40
2018-01-07T06:42:36.039Z,3.67
2018-01-07T06:45:12.668Z,2.93
2018-01-07T06:47:48.355Z,4.20
2018-01-07T06:50:23.699Z,2.33
2018-01-07T06:52:59.445Z,2.90
2018-01-07T06:55:34.784Z,4.70
2018-01-07T06:58:10.141Z,3.40
2018-01-07T07:00:45.462Z,2.47
2018-01-07T07:03:21.754Z,2.70
2018-01-07T07:05:57.238Z,3.33
2018-01-07T07:08:32.580Z,2.80
2018-01-07T07:11:07.971Z,2.60
2018-01-07T07:13:43.945Z,2.67
2018-01-07T07:16:19.162Z,2.53
2018-01-07T07:18:55.721Z,2.40
2018-01-07T07:21:32.336Z,2.90
2018-01-07T07:24:07.627Z,2.60
2018-01-07T07:26:44.278Z,2.67
2018-01-07T07:29:19.611Z,2.63
2018-01-07T07:31:54.985Z,2.27
2018-01-07T07:34:30.575Z,3.57
2018-01-07T07:37:06.325Z,2.10
2018-01-07T07:39:41.730Z,2.80
2018-01-07T07:42:17.004Z,3.10
2018-01-07T07:44:53.388Z,2.77
2018-01-07T07:47:29.290Z,3.90
2018-01-07T07:50:04.801Z,2.90
2018-01-07T07:52:40.655Z,2.67
2018-01-07T07:55:16.339Z,2.53
2018-01-07T07:57:52.056Z,2.73
2018-01-07T08:00:28.208Z,3.03
2018-01-07T08:03:04.657Z,5.60
2018-01-07T08:05:40.850Z,3.20
2018-01-07T08:08:16.604Z,2.70
2018-01-07T08:10:51.824Z,2.10
2018-01-07T08:13:28.434Z,3.40
2018-01-07T08:16:03.980Z,3.50
2018-01-07T08:18:40.343Z,2.83
2018-01-07T08:21:15.419Z,2.40
2018-01-07T08:23:50.746Z,2.23
2018-01-07T08:26:27.497Z,2.80
2018-01-07T08:29:03.874Z,2.67
2018-01-07T08:31:39.330Z,2.50
2018-01-07T08:34:14.857Z,3.30
2018-01-07T08:36:50.105Z,3.00
2018-01-07T08:39:25.754Z,2.47
2018-01-07T08:42:01.301Z,2.60
2018-01-07T08:44:37.985Z,2.63
2018-01-07T08:47:13.582Z,2.47
2018-01-07T08:49:48.684Z,2.10
2018-01-07T08:52:24.464Z,2.60
2018-01-07T08:54:59.781Z,2.90
2018-01-07T08:57:35.035Z,2.63
2018-01-07T09:00:10.844Z,3.27
2018-01-07T09:02:46.827Z,2.67
2018-01-07T09:05:22.570Z,2.17
2018-01-07T09:07:58.502Z,2.93
2018-01-07T09:10:34.540Z,3.00
2018-01-07T09:13:10.156Z,3.13
2018-01-07T09:15:45.216Z,2.50
2018-01-07T09:18:20.738Z,2.63
2018-01-07T09:20:55.861Z,2.57
2018-01-07T09:23:31.187Z,2.70
2018-01-07T09:26:06.768Z,2.67
2018-01-07T09:28:42.974Z,2.63
2018-01-07T09:31:18.497Z,2.43
2018-01-07T09:33:53.862Z,2.53
2018-01-07T09:36:29.278Z,4.20
2018-01-07T09:39:04.700Z,3.50
2018-01-07T09:41:40.312Z,2.20
2018-01-07T09:44:15.729Z,3.00
2018-01-07T09:46:50.793Z,3.47
2018-01-07T09:49:26.493Z,2.20
2018-01-07T09:52:02.109Z,2.03
2018-01-07T09:54:37.837Z,2.80
2018-01-07T09:57:13.530Z,2.67
2018-01-07T09:59:49.402Z,2.60
2018-01-07T10:02:26.795Z,2.43
2018-01-07T10:05:01.975Z,2.20
2018-01-07T10:07:37.484Z,3.17
2018-01-07T10:10:13.355Z,2.80
2018-01-07T10:12:49.500Z,2.57
2018-01-07T10:15:26.176Z,3.90
2018-01-07T10:18:02.034Z,2.40
2018-01-07T10:20:37.487Z,2.73
2018-01-07T10:23:13.146Z,2.47
2018-01-07T10:25:48.574Z,2.53
2018-01-07T10:28:24.025Z,2.87
2018-01-07T10:31:00.515Z,3.27
2018-01-07T10:33:36.152Z,2.43
2018-01-07T10:36:12.613Z,2.53
2018-01-07T10:38:48.265Z,2.50
2018-01-07T10:41:23.607Z,2.57
2018-01-07T10:43:58.885Z,2.60
2018-01-07T10:46:34.510Z,2.33
2018-01-07T10:49:09.948Z,2.13
2018-01-07T10:51:45.293Z,2.33
2018-01-07T10:54:21.425Z,2.73
2018-01-07T10:56:57.749Z,2.10
2018-01-07T10:59:33.495Z,2.70
2018-01-07T11:02:08.960Z,2.40
2018-01-07T11:04:44.636Z,3.10
2018-01-07T11:07:20.656Z,2.70
2018-01-07T11:09:56.547Z,2.50
2018-01-07T11:12:31.853Z,2.97
2018-01-07T11:15:07.095Z,2.87
2018-01-07T11:17:42.829Z,2.77
2018-01-07T11:20:18.105Z,2.60
2018-01-07T11:22:53.475Z,2.43
2018-01-07T11:25:29.590Z,2.57
2018-01-07T11:28:05.126Z,2.57
2018-01-07T11:30:40.679Z,2.47
2018-01-07T11:33:32.271Z,6.50
2018-01-07T11:36:08.791Z,3.53
2018-01-07T11:38:44.564Z,2.40
2018-01-07T11:41:20.250Z,2.53
2018-01-07T11:43:56.424Z,2.60
2018-01-07T11:46:31.769Z,2.80
2018-01-07T11:49:08.170Z,2.47
2018-01-07T11:51:44.931Z,2.97
2018-01-07T11:54:21.196Z,2.90
2018-01-07T11:56:57.199Z,5.50
2018-01-07T11:59:32.711Z,5.60
2018-01-07T12:02:08.701Z,6.60
2018-01-07T12:04:43.716Z,9.53
2018-01-07T12:07:19.550Z,6.10
2018-01-07T12:09:55.111Z,6.93
2018-01-07T12:12:31.274Z,7.13
2018-01-07T12:15:07.956Z,6.40
2018-01-07T12:17:43.593Z,8.77
2018-01-07T12:20:19.763Z,9.33
2018-01-07T12:22:55.516Z,10.87
2018-01-07T12:25:32.173Z,10.20
2018-01-07T12:28:09.064Z,10.80
2018-01-07T12:30:45.776Z,7.83
2018-01-07T12:33:21.364Z,8.70
2018-01-07T12:35:57.154Z,8.47
2018-01-07T12:38:32.409Z,8.97
2018-01-07T12:41:09.271Z,10.33
2018-01-07T12:43:45.768Z,10.67
2018-01-07T12:46:20.989Z,11.37
2018-01-07T12:48:57.285Z,10.70
2018-01-07T12:51:32.251Z,9.93
2018-01-07T12:54:09.056Z,11.17
2018-01-07T12:56:45.737Z,12.67
2018-01-07T12:59:21.507Z,9.73
2018-01-07T13:01:56.625Z,12.90
2018-01-07T13:04:32.311Z,11.70
2018-01-07T13:07:07.847Z,12.70
2018-01-07T13:09:43.317Z,12.30
2018-01-07T13:12:18.869Z,15.10
2018-01-07T13:14:54.627Z,13.40
2018-01-07T13:17:30.186Z,10.47
2018-01-07T13:20:06.147Z,9.93
2018-01-07T13:22:42.048Z,14.20
2018-01-07T13:25:17.405Z,15.60
2018-01-07T13:27:52.320Z,9.60
2018-01-07T13:30:27.763Z,15.83
2018-01-07T13:33:03.630Z,11.90
2018-01-07T13:35:39.235Z,12.07
2018-01-07T13:38:14.015Z,11.97
2018-01-07T13:40:49.957Z,12.67
2018-01-07T13:43:25.725Z,16.40
2018-01-07T13:46:00.908Z,11.00
2018-01-07T13:48:36.749Z,9.10
2018-01-07T13:51:11.969Z,9.60
2018-01-07T13:53:47.295Z,14.90
2018-01-07T13:56:23.222Z,10.40
2018-01-07T13:58:58.923Z,10.50
2018-01-07T14:01:33.671Z,11.93
2018-01-07T14:04:08.874Z,11.43
2018-01-07T14:06:45.651Z,11.43
2018-01-07T14:09:21.843Z,9.80
2018-01-07T14:11:57.360Z,11.03
2018-01-07T14:14:32.841Z,7.03
2018-01-07T14:17:08.458Z,8.10
2018-01-07T14:19:43.628Z,14.57
2018-01-07T14:22:19.571Z,10.87
2018-01-07T14:24:54.812Z,13.93
2018-01-07T14:27:29.887Z,7.10
2018-01-07T14:30:04.873Z,8.53
2018-01-07T14:32:39.922Z,8.43
2018-01-07T14:35:14.945Z,10.20
2018-01-07T14:37:50.395Z,10.63
2018-01-07T14:40:25.872Z,11.33
2018-01-07T14:43:02.016Z,14.20
2018-01-07T14:45:37.963Z,12.30
2018-01-07T14:48:13.576Z,14.20
2018-01-07T14:50:48.624Z,6.77
2018-01-07T14:53:25.023Z,9.37
2018-01-07T14:56:01.701Z,7.90
2018-01-07T14:58:37.673Z,7.87
2018-01-07T15:01:13.594Z,7.77
2018-01-07T15:03:49.872Z,8.83
2018-01-07T15:06:25.963Z,8.23
2018-01-07T15:09:02.348Z,9.33
2018-01-07T15:11:37.617Z,9.80
2018-01-07T15:14:12.933Z,7.13
2018-01-07T15:16:48.120Z,5.47
2018-01-07T15:19:23.465Z,8.63
2018-01-07T15:21:58.283Z,12.70
2018-01-07T15:24:35.103Z,12.97
2018-01-07T15:27:10.324Z,6.97
2018-01-07T15:29:45.470Z,13.30
2018-01-07T15:32:20.928Z,13.83
2018-01-07T15:34:56.295Z,12.73
2018-01-07T15:37:32.495Z,7.40
2018-01-07T15:40:09.239Z,17.50
2018-01-07T15:42:45.042Z,5.77
2018-01-07T15:45:20.633Z,7.13
2018-01-07T15:47:56.012Z,12.77
2018-01-07T15:50:31.632Z,7.23
2018-01-07T15:53:07.560Z,8.27
2018-01-07T15:55:43.144Z,10.57
2018-01-07T15:58:18.585Z,7.73
2018-01-07T16:00:54.896Z,7.80
2018-01-07T16:03:31.455Z,8.47
2018-01-07T16:06:08.301Z,14.60
2018-01-07T16:08:45.021Z,10.70
2018-01-07T16:11:21.557Z,10.03
2018-01-07T16:13:57.286Z,14.20
2018-01-07T16:16:33.007Z,6.97
2018-01-07T16:19:08.886Z,8.90
2018-01-07T16:21:43.963Z,8.90
2018-01-07T16:24:19.692Z,7.80
2018-01-07T16:26:55.550Z,14.33
2018-01-07T16:29:31.380Z,9.03
2018-01-07T16:32:06.937Z,10.10
2018-01-07T16:34:42.642Z,10.90
2018-01-07T16:37:17.658Z,13.17
2018-01-07T16:39:52.588Z,13.70
2018-01-07T16:42:28.543Z,12.30
2018-01-07T16:45:04.329Z,13.57
2018-01-07T16:47:39.524Z,14.67
2018-01-07T16:50:15.268Z,17.50
2018-01-07T16:52:50.814Z,15.60
2018-01-07T16:55:26.683Z,12.33
2018-01-07T16:58:02.353Z,18.73
2018-01-07T17:00:37.754Z,16.30
2018-01-07T17:03:13.585Z,12.53
2018-01-07T17:05:49.334Z,13.37
2018-01-07T17:08:26.249Z,10.27
2018-01-07T17:11:02.967Z,12.40
2018-01-07T17:13:39.154Z,19.93
2018-01-07T17:16:15.833Z,14.23
2018-01-07T17:18:52.530Z,18.67
2018-01-07T17:21:28.244Z,20.27
2018-01-07T17:24:05.124Z,12.63
2018-01-07T17:26:40.963Z,12.70
2018-01-07T17:29:17.149Z,10.70
2018-01-07T17:31:52.845Z,13.47
2018-01-07T17:34:29.852Z,16.07
2018-01-07T17:37:06.010Z,10.83
2018-01-07T17:39:42.732Z,11.47
2018-01-07T17:42:18.023Z,12.27
2018-01-07T17:44:54.792Z,10.43
2018-01-07T17:47:29.985Z,13.50
2018-01-07T17:50:06.529Z,10.40
2018-01-07T17:52:41.663Z,17.37
2018-01-07T17:55:17.242Z,12.93
2018-01-07T17:57:53.862Z,19.43
2018-01-07T18:00:30.754Z,11.67
2018-01-07T18:03:06.114Z,16.00
2018-01-07T18:05:41.446Z,14.50
2018-01-07T18:08:16.861Z,12.10
2018-01-07T18:10:52.161Z,12.17
2018-01-07T18:13:29.103Z,16.73
2018-01-07T18:16:04.371Z,11.27
2018-01-07T18:18:40.188Z,13.70
2018-01-07T18:21:16.423Z,15.67
2018-01-07T18:23:51.613Z,14.97
2018-01-07T18:26:27.408Z,10.90
2018-01-07T18:29:05.247Z,15.43
2018-01-07T18:31:40.885Z,15.03
2018-01-07T18:34:16.657Z,12.23
2018-01-07T18:36:52.701Z,12.97
2018-01-07T18:39:28.615Z,15.33
2018-01-07T18:42:04.735Z,10.30
2018-01-07T18:44:40.427Z,14.30
2018-01-07T18:47:15.857Z,11.83
2018-01-07T18:49:52.386Z,12.70
2018-01-07T18:52:27.973Z,10.33
2018-01-07T18:55:03.484Z,26.13
2018-01-07T18:57:38.992Z,10.93
2018-01-07T19:00:14.953Z,11.57
2018-01-07T19:02:50.547Z,11.60
2018-01-07T19:05:26.173Z,15.70
2018-01-07T19:08:02.508Z,17.33
2018-01-07T19:10:37.787Z,14.37
2018-01-07T19:13:14.253Z,14.63
2018-01-07T19:15:52.689Z,15.23
2018-01-07T19:18:28.328Z,20.10
2018-01-07T19:21:04.702Z,19.83
2018-01-07T19:23:41.616Z,14.03
2018-01-07T19:26:17.266Z,11.33
2018-01-07T19:28:53.262Z,12.97
2018-01-07T19:31:30.010Z,17.00
2018-01-07T19:34:07.043Z,11.57
2018-01-07T19:36:43.258Z,19.60
2018-01-07T19:39:19.019Z,16.43
2018-01-07T19:41:54.139Z,14.47
2018-01-07T19:44:29.943Z,11.10
2018-01-07T19:47:05.777Z,12.67
2018-01-07T19:49:41.381Z,13.03
2018-01-07T19:52:17.313Z,9.50
2018-01-07T19:54:53.128Z,14.60
2018-01-07T19:57:28.494Z,13.33
2018-01-07T20:00:04.345Z,9.73
2018-01-07T20:02:40.981Z,10.70
2018-01-07T20:05:17.255Z,15.33
2018-01-07T20:07:52.988Z,11.80
2018-01-07T20:10:44.022Z,8.33
2018-01-07T20:13:12.193Z,16.73
2018-01-07T20:15:40.383Z,8.90
2018-01-07T20:18:08.649Z,12.97
2018-01-07T20:36:08.788Z,12.20
2018-01-07T20:38:36.860Z,9.43
2018-01-07T20:41:04.842Z,11.10
2018-01-07T20:43:32.601Z,11.60
2018-01-07T20:46:00.395Z,12.20
2018-01-07T20:48:28.403Z,8.10
2018-01-07T20:50:57.288Z,15.43
2018-01-07T20:53:25.272Z,11.17
2018-01-07T20:55:53.481Z,10.10
2018-01-07T20:58:22.088Z,13.37
2018-01-07T21:00:50.040Z,8.10
2018-01-07T21:03:17.887Z,9.50
2018-01-07T21:05:45.895Z,8.20
2018-01-07T21:08:13.717Z,10.80
2018-01-07T21:10:42.036Z,8.00
2018-01-07T21:13:10.768Z,9.37
2018-01-07T21:15:39.476Z,12.43
2018-01-07T21:18:07.585Z,8.20
2018-01-07T21:20:35.547Z,9.80
2018-01-07T21:23:04.136Z,12.57
2018-01-07T21:25:31.894Z,10.83
2018-01-07T21:27:59.613Z,11.43
2018-01-07T21:30:27.347Z,7.43
2018-01-07T21:32:55.040Z,12.07
2018-01-07T21:35:22.845Z,10.07
2018-01-07T21:37:50.552Z,8.43
2018-01-07T21:40:18.291Z,8.23
2018-01-07T21:42:46.036Z,9.10
2018-01-07T21:45:14.550Z,12.70
2018-01-07T21:47:43.107Z,9.83
2018-01-07T21:50:10.800Z,8.67
2018-01-07T21:52:38.752Z,11.67
2018-01-07T21:55:06.498Z,6.20
2018-01-07T21:57:34.971Z,9.77
2018-01-07T22:00:03.627Z,10.17
2018-01-07T22:02:31.624Z,6.60
2018-01-07T22:05:00.193Z,31.60
2018-01-07T22:07:27.836Z,6.30
2018-01-07T22:09:55.849Z,8.40
2018-01-07T22:12:23.870Z,4.77
2018-01-07T22:14:52.453Z,3.70
2018-01-07T22:17:21.313Z,4.30
2018-01-07T22:19:49.815Z,3.83
2018-01-07T22:22:17.800Z,5.03
2018-01-07T22:24:45.500Z,5.30
2018-01-07T22:27:13.415Z,3.93
2018-01-07T22:29:42.065Z,4.77
2018-01-07T22:32:09.711Z,5.20
2018-01-07T22:34:37.393Z,5.50
2018-01-07T22:37:06.468Z,3.60
2018-01-07T22:39:34.198Z,6.93
2018-01-07T22:42:01.920Z,7.03
2018-01-07T22:44:29.595Z,10.43
2018-01-07T22:46:57.385Z,4.80
2018-01-07T22:49:25.060Z,2.93
2018-01-07T22:51:52.901Z,2.23
2018-01-07T22:54:20.645Z,3.60
2018-01-07T22:56:48.614Z,1.50
2018-01-07T22:59:16.667Z,1.40
2018-01-07T23:01:44.311Z,0.83
2018-01-07T23:04:11.952Z,0.80
2018-01-07T23:06:40.650Z,0.97
2018-01-07T23:09:09.557Z,1.37
2018-01-07T23:11:37.222Z,0.87
2018-01-07T23:14:05.191Z,1.50
2018-01-07T23:16:34.070Z,2.30
2018-01-07T23:19:02.710Z,1.50
2018-01-07T23:21:30.411Z,0.80
2018-01-07T23:23:59.224Z,1.33
2018-01-07T23:26:26.890Z,1.50
2018-01-07T23:28:54.544Z,1.50
2018-01-07T23:31:22.243Z,2.00
2018-01-07T23:33:50.260Z,0.70
2018-01-07T23:36:18.772Z,1.20
2018-01-07T23:38:46.597Z,1.10
2018-01-07T23:41:15.229Z,1.47
2018-01-07T23:43:43.089Z,1.27
2018-01-07T23:46:11.748Z,0.90
2018-01-07T23:48:40.463Z,1.87
2018-01-07T23:51:08.998Z,0.90
2018-01-07T23:53:36.749Z,1.03
2018-01-07T23:56:04.456Z,0.90
2018-01-07T23:58:32.925Z,1.33
